Terminal Aerodrome Forecast
Issued by NWS

Home | Current Version | Previous Version | Text Only | Print | Product List | Glossary On
Versions: 1 2 3 4 5 6 7 8 9 10 11 12 13 14 15 16 17
998
FTUS42 TJSJ 282320
TAFJBQ
TAF
TJBQ 282320Z 2900/2924 11010KT P6SM SCT025 BKN060
     FM290200 11009KT P6SM SCT024
     FM291400 08014G18KT P6SM SCT020 BKN060
     FM291730 09016KT P6SM VCTS SCT015 BKN025CB BKN030
     FM292300 09009KT P6SM FEW025 SCT060=

USA.gov is the U.S. government's official web portal to all federal, state and local government web resources and services.